sensor_id;sensor_type;location;lat;lon;timestamp;P1;durP1;ratioP1;P2;durP2;ratioP2
59127;SDS011;44912;52.754;5.994;2023-04-03T00:01:26;3.28;;;1.27;;
59127;SDS011;44912;52.754;5.994;2023-04-03T00:03:51;5.80;;;1.70;;
59127;SDS011;44912;52.754;5.994;2023-04-03T00:06:17;4.68;;;1.30;;
59127;SDS011;44912;52.754;5.994;2023-04-03T00:08:43;3.35;;;1.55;;
59127;SDS011;44912;52.754;5.994;2023-04-03T00:11:08;4.68;;;1.50;;
59127;SDS011;44912;52.754;5.994;2023-04-03T00:13:35;4.28;;;1.80;;
59127;SDS011;44912;52.754;5.994;2023-04-03T00:16:01;3.22;;;1.60;;
59127;SDS011;44912;52.754;5.994;2023-04-03T00:18:28;4.00;;;1.50;;
59127;SDS011;44912;52.754;5.994;2023-04-03T00:20:54;3.28;;;1.65;;
59127;SDS011;44912;52.754;5.994;2023-04-03T00:23:19;4.95;;;1.67;;
59127;SDS011;44912;52.754;5.994;2023-04-03T00:25:45;4.90;;;1.40;;
59127;SDS011;44912;52.754;5.994;2023-04-03T00:28:11;4.78;;;1.65;;
59127;SDS011;44912;52.754;5.994;2023-04-03T00:30:37;4.38;;;1.70;;
59127;SDS011;44912;52.754;5.994;2023-04-03T00:33:02;3.13;;;1.48;;
59127;SDS011;44912;52.754;5.994;2023-04-03T00:35:28;3.45;;;1.60;;
59127;SDS011;44912;52.754;5.994;2023-04-03T00:37:54;4.47;;;1.63;;
59127;SDS011;44912;52.754;5.994;2023-04-03T00:40:21;4.88;;;1.95;;
59127;SDS011;44912;52.754;5.994;2023-04-03T00:42:48;4.95;;;1.60;;
59127;SDS011;44912;52.754;5.994;2023-04-03T00:45:27;5.47;;;1.90;;
59127;SDS011;44912;52.754;5.994;2023-04-03T00:47:58;7.13;;;1.70;;
59127;SDS011;44912;52.754;5.994;2023-04-03T00:50:27;4.25;;;1.67;;
59127;SDS011;44912;52.754;5.994;2023-04-03T00:52:54;3.47;;;1.45;;
59127;SDS011;44912;52.754;5.994;2023-04-03T00:55:20;4.32;;;1.60;;
59127;SDS011;44912;52.754;5.994;2023-04-03T00:57:46;5.55;;;1.60;;
59127;SDS011;44912;52.754;5.994;2023-04-03T01:00:13;4.90;;;1.80;;
59127;SDS011;44912;52.754;5.994;2023-04-03T01:02:41;3.83;;;1.50;;
59127;SDS011;44912;52.754;5.994;2023-04-03T01:05:07;4.28;;;1.65;;
59127;SDS011;44912;52.754;5.994;2023-04-03T01:07:34;3.90;;;1.55;;
59127;SDS011;44912;52.754;5.994;2023-04-03T01:10:04;4.90;;;1.67;;
59127;SDS011;44912;52.754;5.994;2023-04-03T01:12:37;3.83;;;1.63;;
59127;SDS011;44912;52.754;5.994;2023-04-03T01:15:06;5.50;;;1.73;;
59127;SDS011;44912;52.754;5.994;2023-04-03T01:17:42;7.75;;;2.22;;
59127;SDS011;44912;52.754;5.994;2023-04-03T01:25:41;4.80;;;1.70;;
59127;SDS011;44912;52.754;5.994;2023-04-03T01:28:13;4.20;;;1.70;;
59127;SDS011;44912;52.754;5.994;2023-04-03T01:30:59;4.68;;;1.63;;
59127;SDS011;44912;52.754;5.994;2023-04-03T01:36:02;6.07;;;1.85;;
59127;SDS011;44912;52.754;5.994;2023-04-03T01:38:28;4.30;;;1.92;;
59127;SDS011;44912;52.754;5.994;2023-04-03T01:40:54;5.72;;;1.75;;
59127;SDS011;44912;52.754;5.994;2023-04-03T01:43:19;5.18;;;1.83;;
59127;SDS011;44912;52.754;5.994;2023-04-03T01:45:45;6.53;;;1.73;;
59127;SDS011;44912;52.754;5.994;2023-04-03T01:48:12;4.85;;;1.73;;
59127;SDS011;44912;52.754;5.994;2023-04-03T01:50:38;4.13;;;1.80;;
59127;SDS011;44912;52.754;5.994;2023-04-03T01:53:03;6.55;;;2.15;;
59127;SDS011;44912;52.754;5.994;2023-04-03T01:55:29;5.40;;;1.80;;
59127;SDS011;44912;52.754;5.994;2023-04-03T01:57:55;5.30;;;1.90;;
59127;SDS011;44912;52.754;5.994;2023-04-03T02:00:21;5.45;;;1.77;;
59127;SDS011;44912;52.754;5.994;2023-04-03T02:02:46;5.90;;;1.77;;
59127;SDS011;44912;52.754;5.994;2023-04-03T02:05:12;4.53;;;1.65;;
59127;SDS011;44912;52.754;5.994;2023-04-03T02:07:37;6.65;;;1.83;;
59127;SDS011;44912;52.754;5.994;2023-04-03T02:10:03;4.47;;;1.50;;
59127;SDS011;44912;52.754;5.994;2023-04-03T02:12:29;4.15;;;1.45;;
59127;SDS011;44912;52.754;5.994;2023-04-03T02:14:54;4.10;;;1.35;;
59127;SDS011;44912;52.754;5.994;2023-04-03T02:17:20;5.05;;;1.55;;
59127;SDS011;44912;52.754;5.994;2023-04-03T02:19:45;2.65;;;1.60;;
59127;SDS011;44912;52.754;5.994;2023-04-03T02:22:11;6.47;;;1.42;;
59127;SDS011;44912;52.754;5.994;2023-04-03T02:24:36;4.50;;;1.52;;
59127;SDS011;44912;52.754;5.994;2023-04-03T02:27:04;4.22;;;1.50;;
59127;SDS011;44912;52.754;5.994;2023-04-03T02:29:29;4.03;;;1.48;;
59127;SDS011;44912;52.754;5.994;2023-04-03T02:31:55;6.68;;;1.50;;
59127;SDS011;44912;52.754;5.994;2023-04-03T02:34:20;5.22;;;1.60;;
59127;SDS011;44912;52.754;5.994;2023-04-03T02:36:46;3.50;;;1.30;;
59127;SDS011;44912;52.754;5.994;2023-04-03T02:39:12;5.45;;;1.60;;
59127;SDS011;44912;52.754;5.994;2023-04-03T02:41:37;4.00;;;1.50;;
59127;SDS011;44912;52.754;5.994;2023-04-03T02:44:03;4.50;;;1.42;;
59127;SDS011;44912;52.754;5.994;2023-04-03T02:46:31;4.35;;;1.50;;
59127;SDS011;44912;52.754;5.994;2023-04-03T02:48:57;4.97;;;1.58;;
59127;SDS011;44912;52.754;5.994;2023-04-03T02:51:23;7.25;;;1.83;;
59127;SDS011;44912;52.754;5.994;2023-04-03T02:53:49;5.63;;;1.70;;
59127;SDS011;44912;52.754;5.994;2023-04-03T02:56:15;7.53;;;1.73;;
59127;SDS011;44912;52.754;5.994;2023-04-03T02:58:42;8.35;;;1.85;;
59127;SDS011;44912;52.754;5.994;2023-04-03T03:01:08;7.43;;;1.63;;
59127;SDS011;44912;52.754;5.994;2023-04-03T03:03:34;7.43;;;1.85;;
59127;SDS011;44912;52.754;5.994;2023-04-03T03:06:01;3.70;;;1.33;;
59127;SDS011;44912;52.754;5.994;2023-04-03T03:08:30;6.78;;;1.75;;
59127;SDS011;44912;52.754;5.994;2023-04-03T03:10:56;5.13;;;1.70;;
59127;SDS011;44912;52.754;5.994;2023-04-03T03:13:22;3.65;;;1.70;;
59127;SDS011;44912;52.754;5.994;2023-04-03T03:15:47;5.88;;;1.50;;
59127;SDS011;44912;52.754;5.994;2023-04-03T03:18:13;6.65;;;2.03;;
59127;SDS011;44912;52.754;5.994;2023-04-03T03:20:39;5.60;;;1.98;;
59127;SDS011;44912;52.754;5.994;2023-04-03T03:23:05;6.97;;;2.08;;
59127;SDS011;44912;52.754;5.994;2023-04-03T03:25:30;4.53;;;1.63;;
59127;SDS011;44912;52.754;5.994;2023-04-03T03:27:56;5.28;;;1.90;;
59127;SDS011;44912;52.754;5.994;2023-04-03T03:30:21;7.78;;;1.80;;
59127;SDS011;44912;52.754;5.994;2023-04-03T03:32:47;4.70;;;1.55;;
59127;SDS011;44912;52.754;5.994;2023-04-03T03:35:12;8.00;;;1.80;;
59127;SDS011;44912;52.754;5.994;2023-04-03T03:37:38;6.15;;;1.77;;
59127;SDS011;44912;52.754;5.994;2023-04-03T03:40:04;5.57;;;1.60;;
59127;SDS011;44912;52.754;5.994;2023-04-03T03:42:30;5.22;;;1.65;;
59127;SDS011;44912;52.754;5.994;2023-04-03T03:44:55;5.60;;;2.15;;
59127;SDS011;44912;52.754;5.994;2023-04-03T03:47:21;5.47;;;1.90;;
59127;SDS011;44912;52.754;5.994;2023-04-03T03:49:46;5.00;;;1.80;;
59127;SDS011;44912;52.754;5.994;2023-04-03T03:52:12;5.78;;;1.80;;
59127;SDS011;44912;52.754;5.994;2023-04-03T03:54:37;6.47;;;1.90;;
59127;SDS011;44912;52.754;5.994;2023-04-03T03:57:03;5.28;;;1.83;;
59127;SDS011;44912;52.754;5.994;2023-04-03T03:59:29;5.95;;;1.92;;
59127;SDS011;44912;52.754;5.994;2023-04-03T04:01:55;7.10;;;1.85;;
59127;SDS011;44912;52.754;5.994;2023-04-03T04:04:21;5.35;;;1.85;;
59127;SDS011;44912;52.754;5.994;2023-04-03T04:06:46;5.57;;;1.92;;
59127;SDS011;44912;52.754;5.994;2023-04-03T04:09:12;8.48;;;2.13;;
59127;SDS011;44912;52.754;5.994;2023-04-03T04:11:38;5.20;;;2.10;;
59127;SDS011;44912;52.754;5.994;2023-04-03T04:14:05;5.10;;;2.28;;
59127;SDS011;44912;52.754;5.994;2023-04-03T04:16:31;7.65;;;2.47;;
59127;SDS011;44912;52.754;5.994;2023-04-03T04:18:56;7.32;;;2.10;;
59127;SDS011;44912;52.754;5.994;2023-04-03T04:21:22;6.47;;;2.22;;
59127;SDS011;44912;52.754;5.994;2023-04-03T04:23:47;5.88;;;2.08;;
59127;SDS011;44912;52.754;5.994;2023-04-03T04:26:13;6.55;;;2.00;;
59127;SDS011;44912;52.754;5.994;2023-04-03T04:28:38;7.88;;;2.10;;
59127;SDS011;44912;52.754;5.994;2023-04-03T04:31:04;5.15;;;2.03;;
59127;SDS011;44912;52.754;5.994;2023-04-03T04:33:30;6.30;;;2.20;;
59127;SDS011;44912;52.754;5.994;2023-04-03T04:35:55;6.55;;;2.45;;
59127;SDS011;44912;52.754;5.994;2023-04-03T04:38:21;6.43;;;2.20;;
59127;SDS011;44912;52.754;5.994;2023-04-03T04:40:47;5.60;;;2.00;;
59127;SDS011;44912;52.754;5.994;2023-04-03T04:43:13;7.78;;;2.38;;
59127;SDS011;44912;52.754;5.994;2023-04-03T04:45:39;6.15;;;2.63;;
59127;SDS011;44912;52.754;5.994;2023-04-03T04:48:05;7.90;;;2.20;;
59127;SDS011;44912;52.754;5.994;2023-04-03T04:50:31;6.57;;;2.38;;
59127;SDS011;44912;52.754;5.994;2023-04-03T04:52:56;8.32;;;2.65;;
59127;SDS011;44912;52.754;5.994;2023-04-03T04:55:22;8.82;;;2.42;;
59127;SDS011;44912;52.754;5.994;2023-04-03T04:57:47;7.15;;;2.45;;
59127;SDS011;44912;52.754;5.994;2023-04-03T05:00:13;7.43;;;2.75;;
59127;SDS011;44912;52.754;5.994;2023-04-03T05:02:39;6.97;;;2.60;;
59127;SDS011;44912;52.754;5.994;2023-04-03T05:05:05;8.38;;;2.72;;
59127;SDS011;44912;52.754;5.994;2023-04-03T05:07:31;6.63;;;2.65;;
59127;SDS011;44912;52.754;5.994;2023-04-03T05:09:56;7.38;;;2.47;;
59127;SDS011;44912;52.754;5.994;2023-04-03T05:12:22;6.22;;;2.28;;
59127;SDS011;44912;52.754;5.994;2023-04-03T05:14:48;7.55;;;2.47;;
59127;SDS011;44912;52.754;5.994;2023-04-03T05:17:14;8.30;;;2.53;;
59127;SDS011;44912;52.754;5.994;2023-04-03T05:19:40;7.38;;;2.30;;
59127;SDS011;44912;52.754;5.994;2023-04-03T05:22:05;7.10;;;2.58;;
59127;SDS011;44912;52.754;5.994;2023-04-03T05:24:31;8.40;;;2.35;;
59127;SDS011;44912;52.754;5.994;2023-04-03T05:26:56;9.50;;;2.45;;
59127;SDS011;44912;52.754;5.994;2023-04-03T05:29:22;9.25;;;2.60;;
59127;SDS011;44912;52.754;5.994;2023-04-03T05:31:48;7.35;;;2.72;;
59127;SDS011;44912;52.754;5.994;2023-04-03T05:34:15;7.68;;;2.40;;
59127;SDS011;44912;52.754;5.994;2023-04-03T05:36:40;6.03;;;2.40;;
59127;SDS011;44912;52.754;5.994;2023-04-03T05:39:06;8.55;;;2.35;;
59127;SDS011;44912;52.754;5.994;2023-04-03T05:41:32;6.70;;;2.53;;
59127;SDS011;44912;52.754;5.994;2023-04-03T05:43:57;8.75;;;2.65;;
59127;SDS011;44912;52.754;5.994;2023-04-03T05:46:23;7.20;;;2.60;;
59127;SDS011;44912;52.754;5.994;2023-04-03T05:48:49;8.25;;;2.63;;
59127;SDS011;44912;52.754;5.994;2023-04-03T05:51:16;7.05;;;2.50;;
59127;SDS011;44912;52.754;5.994;2023-04-03T05:53:47;6.22;;;2.65;;
59127;SDS011;44912;52.754;5.994;2023-04-03T05:56:14;7.72;;;2.83;;
59127;SDS011;44912;52.754;5.994;2023-04-03T05:58:40;8.77;;;3.17;;
59127;SDS011;44912;52.754;5.994;2023-04-03T06:01:05;8.88;;;2.65;;
59127;SDS011;44912;52.754;5.994;2023-04-03T06:03:31;10.00;;;2.90;;
59127;SDS011;44912;52.754;5.994;2023-04-03T06:05:57;9.88;;;2.92;;
59127;SDS011;44912;52.754;5.994;2023-04-03T06:08:22;8.95;;;2.88;;
59127;SDS011;44912;52.754;5.994;2023-04-03T06:10:48;10.02;;;2.85;;
59127;SDS011;44912;52.754;5.994;2023-04-03T06:13:15;9.05;;;3.17;;
59127;SDS011;44912;52.754;5.994;2023-04-03T06:15:41;7.97;;;2.53;;
59127;SDS011;44912;52.754;5.994;2023-04-03T06:18:06;6.80;;;2.20;;
59127;SDS011;44912;52.754;5.994;2023-04-03T06:20:32;6.47;;;2.40;;
59127;SDS011;44912;52.754;5.994;2023-04-03T06:22:57;7.88;;;2.33;;
59127;SDS011;44912;52.754;5.994;2023-04-03T06:25:23;8.73;;;2.80;;
59127;SDS011;44912;52.754;5.994;2023-04-03T06:27:49;7.93;;;2.40;;
59127;SDS011;44912;52.754;5.994;2023-04-03T06:30:14;6.85;;;2.70;;
59127;SDS011;44912;52.754;5.994;2023-04-03T06:32:40;8.32;;;2.60;;
59127;SDS011;44912;52.754;5.994;2023-04-03T06:35:06;8.32;;;2.50;;
59127;SDS011;44912;52.754;5.994;2023-04-03T06:37:32;10.35;;;2.50;;
59127;SDS011;44912;52.754;5.994;2023-04-03T06:39:58;7.65;;;2.70;;
59127;SDS011;44912;52.754;5.994;2023-04-03T06:42:25;9.15;;;2.55;;
59127;SDS011;44912;52.754;5.994;2023-04-03T06:44:50;5.90;;;2.00;;
59127;SDS011;44912;52.754;5.994;2023-04-03T06:47:16;6.55;;;2.20;;
59127;SDS011;44912;52.754;5.994;2023-04-03T06:49:43;8.68;;;2.40;;
59127;SDS011;44912;52.754;5.994;2023-04-03T06:52:09;8.55;;;2.33;;
59127;SDS011;44912;52.754;5.994;2023-04-03T06:54:37;9.15;;;2.50;;
59127;SDS011;44912;52.754;5.994;2023-04-03T06:57:03;7.45;;;2.15;;
59127;SDS011;44912;52.754;5.994;2023-04-03T06:59:28;5.88;;;2.20;;
59127;SDS011;44912;52.754;5.994;2023-04-03T07:01:54;7.93;;;2.50;;
59127;SDS011;44912;52.754;5.994;2023-04-03T07:04:20;6.10;;;2.05;;
59127;SDS011;44912;52.754;5.994;2023-04-03T07:06:46;8.02;;;2.83;;
59127;SDS011;44912;52.754;5.994;2023-04-03T07:09:12;7.30;;;2.15;;
59127;SDS011;44912;52.754;5.994;2023-04-03T07:11:39;6.53;;;2.03;;
59127;SDS011;44912;52.754;5.994;2023-04-03T07:14:05;7.13;;;2.30;;
59127;SDS011;44912;52.754;5.994;2023-04-03T07:16:32;7.00;;;2.55;;
59127;SDS011;44912;52.754;5.994;2023-04-03T07:18:59;8.60;;;2.20;;
59127;SDS011;44912;52.754;5.994;2023-04-03T07:21:25;6.38;;;2.22;;
59127;SDS011;44912;52.754;5.994;2023-04-03T07:23:50;7.70;;;2.30;;
59127;SDS011;44912;52.754;5.994;2023-04-03T07:26:16;10.48;;;2.40;;
59127;SDS011;44912;52.754;5.994;2023-04-03T07:28:42;7.93;;;2.33;;
59127;SDS011;44912;52.754;5.994;2023-04-03T07:31:12;7.57;;;1.80;;
59127;SDS011;44912;52.754;5.994;2023-04-03T07:33:38;7.60;;;2.05;;
59127;SDS011;44912;52.754;5.994;2023-04-03T07:36:05;6.00;;;2.17;;
59127;SDS011;44912;52.754;5.994;2023-04-03T07:38:32;7.15;;;1.85;;
59127;SDS011;44912;52.754;5.994;2023-04-03T07:40:58;7.38;;;2.30;;
59127;SDS011;44912;52.754;5.994;2023-04-03T07:43:24;7.63;;;2.30;;
59127;SDS011;44912;52.754;5.994;2023-04-03T07:45:50;5.50;;;1.88;;
59127;SDS011;44912;52.754;5.994;2023-04-03T07:48:20;9.00;;;2.00;;
59127;SDS011;44912;52.754;5.994;2023-04-03T07:50:46;5.72;;;2.33;;
59127;SDS011;44912;52.754;5.994;2023-04-03T07:53:12;5.32;;;1.73;;
59127;SDS011;44912;52.754;5.994;2023-04-03T07:55:38;6.22;;;2.00;;
59127;SDS011;44912;52.754;5.994;2023-04-03T07:58:11;6.10;;;1.50;;
59127;SDS011;44912;52.754;5.994;2023-04-03T08:00:39;7.57;;;2.20;;
59127;SDS011;44912;52.754;5.994;2023-04-03T08:03:05;6.47;;;1.77;;
59127;SDS011;44912;52.754;5.994;2023-04-03T08:05:35;6.82;;;1.50;;
59127;SDS011;44912;52.754;5.994;2023-04-03T08:08:08;5.78;;;2.00;;
59127;SDS011;44912;52.754;5.994;2023-04-03T08:10:36;5.85;;;1.52;;
59127;SDS011;44912;52.754;5.994;2023-04-03T08:13:02;4.88;;;1.50;;
59127;SDS011;44912;52.754;5.994;2023-04-03T08:15:29;5.03;;;1.50;;
59127;SDS011;44912;52.754;5.994;2023-04-03T08:17:56;5.45;;;1.50;;
59127;SDS011;44912;52.754;5.994;2023-04-03T08:20:22;5.43;;;1.63;;
59127;SDS011;44912;52.754;5.994;2023-04-03T08:22:47;4.20;;;1.33;;
59127;SDS011;44912;52.754;5.994;2023-04-03T08:25:13;4.13;;;1.35;;
59127;SDS011;44912;52.754;5.994;2023-04-03T08:27:39;6.00;;;1.70;;
59127;SDS011;44912;52.754;5.994;2023-04-03T08:30:05;5.80;;;1.35;;
59127;SDS011;44912;52.754;5.994;2023-04-03T08:32:32;4.85;;;1.50;;
59127;SDS011;44912;52.754;5.994;2023-04-03T08:34:59;8.15;;;1.33;;
59127;SDS011;44912;52.754;5.994;2023-04-03T08:37:24;4.75;;;1.20;;
59127;SDS011;44912;52.754;5.994;2023-04-03T08:39:50;3.65;;;1.10;;
59127;SDS011;44912;52.754;5.994;2023-04-03T08:48:13;3.03;;;1.13;;
59127;SDS011;44912;52.754;5.994;2023-04-03T08:50:45;3.85;;;0.93;;
59127;SDS011;44912;52.754;5.994;2023-04-03T08:53:18;5.18;;;1.10;;
59127;SDS011;44912;52.754;5.994;2023-04-03T08:55:50;5.97;;;1.55;;
59127;SDS011;44912;52.754;5.994;2023-04-03T08:58:28;5.07;;;1.30;;
59127;SDS011;44912;52.754;5.994;2023-04-03T09:01:00;4.00;;;1.33;;
59127;SDS011;44912;52.754;5.994;2023-04-03T09:03:40;4.60;;;1.13;;
59127;SDS011;44912;52.754;5.994;2023-04-03T09:06:11;4.07;;;1.20;;
59127;SDS011;44912;52.754;5.994;2023-04-03T09:08:55;4.25;;;1.13;;
59127;SDS011;44912;52.754;5.994;2023-04-03T09:17:28;2.65;;;1.02;;
59127;SDS011;44912;52.754;5.994;2023-04-03T09:22:44;4.78;;;1.05;;
59127;SDS011;44912;52.754;5.994;2023-04-03T09:27:41;3.42;;;1.00;;
59127;SDS011;44912;52.754;5.994;2023-04-03T09:30:12;2.38;;;0.98;;
59127;SDS011;44912;52.754;5.994;2023-04-03T09:32:44;2.30;;;1.00;;
59127;SDS011;44912;52.754;5.994;2023-04-03T09:35:25;3.55;;;1.20;;
59127;SDS011;44912;52.754;5.994;2023-04-03T09:40:38;2.92;;;0.90;;
59127;SDS011;44912;52.754;5.994;2023-04-03T09:43:19;3.95;;;1.00;;
59127;SDS011;44912;52.754;5.994;2023-04-03T09:45:47;4.40;;;1.30;;
59127;SDS011;44912;52.754;5.994;2023-04-03T09:50:56;5.63;;;1.00;;
59127;SDS011;44912;52.754;5.994;2023-04-03T09:55:55;4.13;;;1.00;;
59127;SDS011;44912;52.754;5.994;2023-04-03T09:58:23;3.42;;;0.95;;
59127;SDS011;44912;52.754;5.994;2023-04-03T10:00:57;4.47;;;1.10;;
59127;SDS011;44912;52.754;5.994;2023-04-03T10:03:27;2.28;;;0.80;;
59127;SDS011;44912;52.754;5.994;2023-04-03T10:05:55;4.72;;;0.90;;
59127;SDS011;44912;52.754;5.994;2023-04-03T10:08:32;3.25;;;0.80;;
59127;SDS011;44912;52.754;5.994;2023-04-03T10:11:07;4.32;;;1.10;;
59127;SDS011;44912;52.754;5.994;2023-04-03T10:13:50;2.30;;;0.90;;
59127;SDS011;44912;52.754;5.994;2023-04-03T10:16:23;2.60;;;0.82;;
59127;SDS011;44912;52.754;5.994;2023-04-03T10:21:40;2.58;;;0.75;;
59127;SDS011;44912;52.754;5.994;2023-04-03T10:24:36;2.72;;;0.90;;
59127;SDS011;44912;52.754;5.994;2023-04-03T10:27:42;2.67;;;1.00;;
59127;SDS011;44912;52.754;5.994;2023-04-03T10:30:19;1.30;;;0.65;;
59127;SDS011;44912;52.754;5.994;2023-04-03T10:32:53;2.05;;;0.63;;
59127;SDS011;44912;52.754;5.994;2023-04-03T10:38:08;2.30;;;0.63;;
59127;SDS011;44912;52.754;5.994;2023-04-03T10:40:58;3.17;;;0.68;;
59127;SDS011;44912;52.754;5.994;2023-04-03T10:46:27;2.05;;;0.68;;
59127;SDS011;44912;52.754;5.994;2023-04-03T10:51:48;2.60;;;0.88;;
59127;SDS011;44912;52.754;5.994;2023-04-03T10:54:43;2.55;;;0.90;;
59127;SDS011;44912;52.754;5.994;2023-04-03T10:57:14;1.77;;;0.70;;
59127;SDS011;44912;52.754;5.994;2023-04-03T11:02:22;1.35;;;0.70;;
59127;SDS011;44912;52.754;5.994;2023-04-03T11:04:56;4.30;;;0.93;;
59127;SDS011;44912;52.754;5.994;2023-04-03T11:07:28;2.30;;;0.80;;
59127;SDS011;44912;52.754;5.994;2023-04-03T11:12:49;3.17;;;0.77;;
59127;SDS011;44912;52.754;5.994;2023-04-03T11:15:35;2.25;;;0.82;;
59127;SDS011;44912;52.754;5.994;2023-04-03T11:18:14;3.28;;;0.80;;
59127;SDS011;44912;52.754;5.994;2023-04-03T11:21:00;2.83;;;0.75;;
59127;SDS011;44912;52.754;5.994;2023-04-03T11:23:33;1.40;;;0.70;;
59127;SDS011;44912;52.754;5.994;2023-04-03T11:26:07;5.20;;;0.98;;
59127;SDS011;44912;52.754;5.994;2023-04-03T11:28:37;3.03;;;0.88;;
59127;SDS011;44912;52.754;5.994;2023-04-03T11:33:42;2.78;;;1.00;;
59127;SDS011;44912;52.754;5.994;2023-04-03T11:36:32;2.35;;;0.80;;
59127;SDS011;44912;52.754;5.994;2023-04-03T11:39:10;5.65;;;0.90;;
59127;SDS011;44912;52.754;5.994;2023-04-03T11:41:48;2.40;;;0.90;;
59127;SDS011;44912;52.754;5.994;2023-04-03T11:46:59;2.75;;;1.02;;
59127;SDS011;44912;52.754;5.994;2023-04-03T12:24:44;4.05;;;0.80;;
59127;SDS011;44912;52.754;5.994;2023-04-03T12:35:29;3.03;;;0.90;;
59127;SDS011;44912;52.754;5.994;2023-04-03T12:46:37;3.75;;;1.05;;
59127;SDS011;44912;52.754;5.994;2023-04-03T12:49:18;5.22;;;1.25;;
59127;SDS011;44912;52.754;5.994;2023-04-03T12:51:58;3.20;;;1.00;;
59127;SDS011;44912;52.754;5.994;2023-04-03T12:54:37;3.30;;;0.90;;
59127;SDS011;44912;52.754;5.994;2023-04-03T12:57:16;3.80;;;1.00;;
59127;SDS011;44912;52.754;5.994;2023-04-03T13:00:17;3.07;;;1.10;;
59127;SDS011;44912;52.754;5.994;2023-04-03T13:02:58;4.57;;;1.17;;
59127;SDS011;44912;52.754;5.994;2023-04-03T13:05:24;4.00;;;1.10;;
59127;SDS011;44912;52.754;5.994;2023-04-03T13:07:53;2.53;;;0.93;;
59127;SDS011;44912;52.754;5.994;2023-04-03T13:10:28;3.67;;;1.20;;
59127;SDS011;44912;52.754;5.994;2023-04-03T13:12:55;2.58;;;0.93;;
59127;SDS011;44912;52.754;5.994;2023-04-03T13:15:27;2.88;;;1.00;;
59127;SDS011;44912;52.754;5.994;2023-04-03T13:17:55;2.97;;;1.00;;
59127;SDS011;44912;52.754;5.994;2023-04-03T13:20:23;4.32;;;1.02;;
59127;SDS011;44912;52.754;5.994;2023-04-03T13:22:55;2.40;;;0.93;;
59127;SDS011;44912;52.754;5.994;2023-04-03T13:25:24;2.95;;;1.00;;
59127;SDS011;44912;52.754;5.994;2023-04-03T13:27:52;1.58;;;0.90;;
59127;SDS011;44912;52.754;5.994;2023-04-03T13:32:47;3.50;;;1.10;;
59127;SDS011;44912;52.754;5.994;2023-04-03T13:35:30;4.65;;;1.33;;
59127;SDS011;44912;52.754;5.994;2023-04-03T13:38:03;3.97;;;1.10;;
59127;SDS011;44912;52.754;5.994;2023-04-03T13:40:31;4.18;;;1.40;;
59127;SDS011;44912;52.754;5.994;2023-04-03T13:43:16;3.78;;;1.05;;
59127;SDS011;44912;52.754;5.994;2023-04-03T13:46:04;3.72;;;1.10;;
59127;SDS011;44912;52.754;5.994;2023-04-03T13:48:47;4.00;;;1.08;;
59127;SDS011;44912;52.754;5.994;2023-04-03T13:51:17;4.60;;;1.40;;
59127;SDS011;44912;52.754;5.994;2023-04-03T13:56:21;2.22;;;0.98;;
59127;SDS011;44912;52.754;5.994;2023-04-03T13:59:00;2.40;;;1.13;;
59127;SDS011;44912;52.754;5.994;2023-04-03T14:01:32;3.95;;;1.27;;
59127;SDS011;44912;52.754;5.994;2023-04-03T14:04:23;3.50;;;1.23;;
59127;SDS011;44912;52.754;5.994;2023-04-03T14:06:52;3.92;;;1.30;;
59127;SDS011;44912;52.754;5.994;2023-04-03T14:09:19;3.58;;;1.15;;
59127;SDS011;44912;52.754;5.994;2023-04-03T14:11:46;4.07;;;1.20;;
59127;SDS011;44912;52.754;5.994;2023-04-03T14:14:15;4.38;;;1.33;;
59127;SDS011;44912;52.754;5.994;2023-04-03T14:16:52;3.17;;;1.20;;
59127;SDS011;44912;52.754;5.994;2023-04-03T14:19:24;3.10;;;1.20;;
59127;SDS011;44912;52.754;5.994;2023-04-03T14:21:52;4.00;;;1.35;;
59127;SDS011;44912;52.754;5.994;2023-04-03T14:24:19;3.08;;;1.10;;
59127;SDS011;44912;52.754;5.994;2023-04-03T14:26:46;3.75;;;1.10;;
59127;SDS011;44912;52.754;5.994;2023-04-03T14:29:13;4.35;;;1.38;;
59127;SDS011;44912;52.754;5.994;2023-04-03T14:31:40;5.55;;;1.40;;
59127;SDS011;44912;52.754;5.994;2023-04-03T14:34:08;3.53;;;1.20;;
59127;SDS011;44912;52.754;5.994;2023-04-03T14:36:35;4.80;;;1.55;;
59127;SDS011;44912;52.754;5.994;2023-04-03T14:39:01;4.80;;;1.17;;
59127;SDS011;44912;52.754;5.994;2023-04-03T14:41:28;3.72;;;1.40;;
59127;SDS011;44912;52.754;5.994;2023-04-03T14:43:54;3.83;;;1.17;;
59127;SDS011;44912;52.754;5.994;2023-04-03T14:46:33;5.07;;;1.70;;
59127;SDS011;44912;52.754;5.994;2023-04-03T14:49:01;3.75;;;1.30;;
59127;SDS011;44912;52.754;5.994;2023-04-03T14:51:32;4.32;;;1.40;;
59127;SDS011;44912;52.754;5.994;2023-04-03T14:53:58;4.88;;;1.42;;
59127;SDS011;44912;52.754;5.994;2023-04-03T14:56:26;4.53;;;1.42;;
59127;SDS011;44912;52.754;5.994;2023-04-03T14:58:55;6.07;;;1.60;;
59127;SDS011;44912;52.754;5.994;2023-04-03T15:01:25;3.60;;;1.25;;
59127;SDS011;44912;52.754;5.994;2023-04-03T15:03:52;3.85;;;1.33;;
59127;SDS011;44912;52.754;5.994;2023-04-03T15:06:18;4.15;;;1.30;;
59127;SDS011;44912;52.754;5.994;2023-04-03T15:08:45;4.90;;;1.38;;
59127;SDS011;44912;52.754;5.994;2023-04-03T15:11:12;5.03;;;1.48;;
59127;SDS011;44912;52.754;5.994;2023-04-03T15:13:39;4.78;;;1.27;;
59127;SDS011;44912;52.754;5.994;2023-04-03T15:16:06;2.92;;;1.30;;
59127;SDS011;44912;52.754;5.994;2023-04-03T15:18:41;4.30;;;1.40;;
59127;SDS011;44912;52.754;5.994;2023-04-03T15:21:07;4.55;;;1.50;;
59127;SDS011;44912;52.754;5.994;2023-04-03T15:23:32;4.05;;;1.20;;
59127;SDS011;44912;52.754;5.994;2023-04-03T15:25:58;5.78;;;1.60;;
59127;SDS011;44912;52.754;5.994;2023-04-03T15:31:05;4.38;;;1.35;;
59127;SDS011;44912;52.754;5.994;2023-04-03T15:33:31;5.45;;;1.67;;
59127;SDS011;44912;52.754;5.994;2023-04-03T15:35:58;3.25;;;1.45;;
59127;SDS011;44912;52.754;5.994;2023-04-03T15:38:24;4.32;;;1.52;;
59127;SDS011;44912;52.754;5.994;2023-04-03T15:40:50;4.60;;;1.50;;
59127;SDS011;44912;52.754;5.994;2023-04-03T15:43:15;4.38;;;1.40;;
59127;SDS011;44912;52.754;5.994;2023-04-03T15:45:41;5.15;;;1.50;;
59127;SDS011;44912;52.754;5.994;2023-04-03T15:48:08;4.07;;;1.40;;
59127;SDS011;44912;52.754;5.994;2023-04-03T15:50:34;4.88;;;1.50;;
59127;SDS011;44912;52.754;5.994;2023-04-03T15:53:00;3.90;;;1.40;;
59127;SDS011;44912;52.754;5.994;2023-04-03T15:55:28;5.50;;;1.58;;
59127;SDS011;44912;52.754;5.994;2023-04-03T15:57:55;3.92;;;1.35;;
59127;SDS011;44912;52.754;5.994;2023-04-03T16:00:21;5.93;;;1.83;;
59127;SDS011;44912;52.754;5.994;2023-04-03T16:02:48;5.43;;;1.70;;
59127;SDS011;44912;52.754;5.994;2023-04-03T16:05:21;4.63;;;1.55;;
59127;SDS011;44912;52.754;5.994;2023-04-03T16:07:47;5.68;;;1.83;;
59127;SDS011;44912;52.754;5.994;2023-04-03T16:10:13;4.50;;;1.77;;
59127;SDS011;44912;52.754;5.994;2023-04-03T16:12:41;5.05;;;2.03;;
59127;SDS011;44912;52.754;5.994;2023-04-03T16:15:07;5.00;;;1.90;;
59127;SDS011;44912;52.754;5.994;2023-04-03T16:17:33;5.53;;;1.58;;
59127;SDS011;44912;52.754;5.994;2023-04-03T16:20:00;4.28;;;1.70;;
59127;SDS011;44912;52.754;5.994;2023-04-03T16:22:28;5.47;;;2.03;;
59127;SDS011;44912;52.754;5.994;2023-04-03T16:24:54;4.95;;;1.65;;
59127;SDS011;44912;52.754;5.994;2023-04-03T16:27:21;5.05;;;1.60;;
59127;SDS011;44912;52.754;5.994;2023-04-03T16:29:46;3.67;;;1.60;;
59127;SDS011;44912;52.754;5.994;2023-04-03T16:32:12;4.32;;;1.60;;
59127;SDS011;44912;52.754;5.994;2023-04-03T16:34:38;4.93;;;1.80;;
59127;SDS011;44912;52.754;5.994;2023-04-03T16:37:05;4.82;;;1.50;;
59127;SDS011;44912;52.754;5.994;2023-04-03T16:39:33;5.63;;;1.48;;
59127;SDS011;44912;52.754;5.994;2023-04-03T16:41:59;5.32;;;1.55;;
59127;SDS011;44912;52.754;5.994;2023-04-03T16:44:25;6.57;;;1.63;;
59127;SDS011;44912;52.754;5.994;2023-04-03T16:46:51;4.22;;;1.50;;
59127;SDS011;44912;52.754;5.994;2023-04-03T16:49:16;3.65;;;1.33;;
59127;SDS011;44912;52.754;5.994;2023-04-03T16:51:42;3.05;;;1.35;;